LTAS Airport Information

Runway Information
Airport Frequencies
Airport Navaids
Type NDB-DME Name Caycuma Frequency 292 KHZ
Airport Weather Information & NOTAM
ADDS - METARS form results

(1008 UTC 22 February 2020)
Data provider http://aviationweather.gov/metar/data/
 
Forecast for: LTAS (ZONGULDAK , TR)
Text: TAF LTAS 220740Z 2209/2218 VRB02KT 8000 SCT030 BKN100
Forecast period: 0900 to 1800 UTC 22 February 2020
Forecast type: FROM: standard forecast or significant change
Winds: variable direction winds at 2 MPH (2 knots; 1.0 m/s)
Visibility: 5 miles (8 km)
Ceiling: 10000 feet AGL
Clouds: scattered clouds at 3000 feet AGL
broken clouds at 10000 feet AGL
Weather: no significant weather forecast for this period
Text: TEMPO 2209/2213 4000 -SHRA BR BKN025 BKN080
Forecast period: 0900 to 1300 UTC 22 February 2020
Forecast type: TEMPORARY: The following changes expected for less than half the time period
Visibility: 2.49 miles (4.01 km)
Ceiling: 2500 feet AGL
Clouds: broken clouds at 2500 feet AGL
broken clouds at 8000 feet AGL
Weather: -SHRA BR  (light rain showers, mist)
Text: TEMPO 2214/2218 -SHRA BKN025 BKN080
Forecast period: 1400 to 1800 UTC 22 February 2020
Forecast type: TEMPORARY: The following changes expected for less than half the time period
Visibility: missing
Ceiling: 2500 feet AGL
Clouds: broken clouds at 2500 feet AGL
broken clouds at 8000 feet AGL
Weather: -SHRA  (light rain showers)